createdAt,value
2016-12-05T00:00:18.132Z,75.87
2016-12-05T00:01:32.192Z,75.65
2016-12-05T00:02:00.564Z,75.87
2016-12-05T00:02:22.490Z,76.07
2016-12-05T00:02:44.249Z,76.29
2016-12-05T00:03:13.284Z,76.48
2016-12-05T00:03:37.956Z,76.41
2016-12-05T00:04:09.240Z,76.24
2016-12-05T00:04:38.375Z,76.41
2016-12-05T00:05:53.307Z,76.17
2016-12-05T00:06:16.043Z,76.23
2016-12-05T00:06:45.267Z,76.35
2016-12-05T00:08:36.062Z,76.45
2016-12-05T00:09:03.531Z,76.58
2016-12-05T00:09:26.284Z,76.79
2016-12-05T00:09:52.810Z,76.95
2016-12-05T00:10:14.635Z,77.06
2016-12-05T00:10:38.937Z,77.25
2016-12-05T00:11:34.635Z,77.13
2016-12-05T00:12:46.489Z,76.86
2016-12-05T00:13:08.220Z,76.79
2016-12-05T00:13:37.180Z,76.79
2016-12-05T00:14:03.699Z,76.64
2016-12-05T00:14:27.435Z,76.55
2016-12-05T00:14:58.691Z,76.63
2016-12-05T00:15:20.511Z,76.78
2016-12-05T00:15:46.844Z,76.88
2016-12-05T00:16:08.768Z,77.03
2016-12-05T00:17:33.969Z,77.37
2016-12-05T00:18:03.235Z,77.29
2016-12-05T00:18:28.526Z,77.49
2016-12-05T00:19:29.786Z,77.59
2016-12-05T00:19:56.303Z,77.66
2016-12-05T00:20:19.052Z,77.65
2016-12-05T00:21:21.967Z,77.78
2016-12-05T00:21:48.608Z,77.81
2016-12-05T00:22:11.342Z,77.73
2016-12-05T00:22:40.815Z,77.71
2016-12-05T00:23:07.533Z,77.87
2016-12-05T00:23:35.097Z,77.83
2016-12-05T00:24:52.629Z,77.87
2016-12-05T00:25:14.469Z,77.90
2016-12-05T00:25:37.199Z,77.88
2016-12-05T00:26:37.574Z,77.74
2016-12-05T00:26:59.319Z,77.62
2016-12-05T00:27:52.160Z,77.50
2016-12-05T00:28:19.256Z,77.10
2016-12-05T00:28:43.759Z,77.02
2016-12-05T00:29:05.495Z,77.01
2016-12-05T00:29:37.762Z,77.17
2016-12-05T00:30:09.036Z,77.13
2016-12-05T00:30:36.539Z,77.33
2016-12-05T00:30:58.283Z,77.48
2016-12-05T00:31:24.795Z,77.57
2016-12-05T00:31:51.367Z,77.70
2016-12-05T00:32:17.905Z,77.67
2016-12-05T00:32:42.523Z,77.52
2016-12-05T00:33:09.026Z,77.60
2016-12-05T00:33:34.724Z,77.69
2016-12-05T00:33:56.446Z,77.62
2016-12-05T00:34:18.228Z,77.63
2016-12-05T00:34:45.174Z,77.61
2016-12-05T00:35:12.852Z,77.75
2016-12-05T00:35:41.366Z,77.97
2016-12-05T00:36:07.873Z,77.82
2016-12-05T00:36:33.112Z,77.89
2016-12-05T00:36:57.419Z,78.00
2016-12-05T00:37:58.437Z,77.93
2016-12-05T00:38:46.686Z,78.03
2016-12-05T00:39:18.948Z,77.94
2016-12-05T00:40:16.776Z,78.18
2016-12-05T00:40:38.501Z,78.03
2016-12-05T00:41:00.228Z,77.85
2016-12-05T00:41:25.551Z,77.88
2016-12-05T00:41:52.056Z,77.63
2016-12-05T00:42:54.267Z,77.56
2016-12-05T00:43:51.846Z,77.67
2016-12-05T00:44:25.871Z,77.66
2016-12-05T00:45:36.273Z,77.47
2016-12-05T00:46:32.076Z,77.17
2016-12-05T00:47:00.088Z,76.87
2016-12-05T00:47:26.572Z,77.04
2016-12-05T00:47:55.808Z,77.22
2016-12-05T00:48:21.060Z,77.40
2016-12-05T00:48:42.776Z,77.54
2016-12-05T00:49:09.291Z,77.64
2016-12-05T00:49:38.663Z,77.74
2016-12-05T00:50:05.160Z,77.72
2016-12-05T00:50:26.879Z,77.80
2016-12-05T00:50:53.406Z,77.87
2016-12-05T00:51:21.898Z,77.75
2016-12-05T00:51:48.218Z,77.71
2016-12-05T00:52:52.291Z,77.73
2016-12-05T00:53:16.741Z,77.80
2016-12-05T00:53:38.506Z,77.75
2016-12-05T00:54:05.016Z,77.73
2016-12-05T00:54:31.515Z,77.63
2016-12-05T00:56:08.310Z,77.16
2016-12-05T00:56:34.877Z,77.36
2016-12-05T00:56:59.498Z,77.60
2016-12-05T00:57:21.228Z,77.68
2016-12-05T00:57:47.729Z,77.67
2016-12-05T00:58:14.227Z,77.53
2016-12-05T00:58:35.958Z,77.43
2016-12-05T00:59:07.240Z,77.42
2016-12-05T00:59:29.996Z,77.39
2016-12-05T00:59:52.680Z,77.05
2016-12-05T01:00:14.419Z,76.96
2016-12-05T01:00:37.140Z,76.99
2016-12-05T01:01:03.675Z,77.08
2016-12-05T01:01:32.970Z,77.07
2016-12-05T01:02:30.776Z,77.26
2016-12-05T01:02:57.264Z,77.23
2016-12-05T01:04:17.434Z,77.70
2016-12-05T01:04:43.958Z,77.78
2016-12-05T01:05:10.452Z,77.73
2016-12-05T01:05:35.055Z,77.74
2016-12-05T01:06:01.555Z,77.76
2016-12-05T01:06:27.259Z,77.76
2016-12-05T01:06:48.982Z,77.84
2016-12-05T01:07:16.487Z,77.84
2016-12-05T01:07:38.243Z,77.80
2016-12-05T01:07:59.970Z,77.79
2016-12-05T01:08:22.699Z,77.67
2016-12-05T01:09:15.519Z,77.51
2016-12-05T01:09:37.234Z,77.39
2016-12-05T01:09:59.965Z,77.12
2016-12-05T01:10:31.235Z,77.29
2016-12-05T01:10:52.999Z,77.44
2016-12-05T01:11:19.306Z,77.60
2016-12-05T01:11:41.017Z,77.61
2016-12-05T01:12:07.554Z,77.57
2016-12-05T01:13:00.270Z,77.54
2016-12-05T01:13:49.739Z,77.69
2016-12-05T01:14:14.212Z,77.60
2016-12-05T01:14:38.565Z,77.64
2016-12-05T01:15:02.900Z,77.69
2016-12-05T01:15:27.272Z,77.55
2016-12-05T01:15:49.063Z,77.56
2016-12-05T01:16:10.784Z,77.60
2016-12-05T01:16:37.293Z,77.45
2016-12-05T01:16:59.042Z,77.36
2016-12-05T01:17:26.543Z,77.39
2016-12-05T01:17:53.068Z,77.44
2016-12-05T01:18:19.586Z,77.47
2016-12-05T01:18:46.092Z,77.50
2016-12-05T01:19:13.629Z,77.52
2016-12-05T01:19:36.371Z,77.68
2016-12-05T01:20:03.609Z,77.70
2016-12-05T01:20:25.379Z,77.53
2016-12-05T01:20:47.099Z,77.56
2016-12-05T01:21:08.832Z,77.35
2016-12-05T01:22:02.280Z,77.25
2016-12-05T01:22:24.006Z,77.36
2016-12-05T01:22:56.282Z,77.49
2016-12-05T01:23:18.020Z,77.52
2016-12-05T01:23:44.512Z,77.56
2016-12-05T01:24:06.297Z,77.50
2016-12-05T01:24:30.030Z,77.40
2016-12-05T01:24:52.780Z,77.45
2016-12-05T01:25:19.278Z,77.37
2016-12-05T01:26:18.093Z,77.26
2016-12-05T01:26:44.590Z,77.05
2016-12-05T01:27:47.714Z,77.40
2016-12-05T01:28:10.440Z,77.54
2016-12-05T01:28:37.142Z,77.67
2016-12-05T01:29:25.388Z,77.85
2016-12-05T01:29:51.890Z,77.90
2016-12-05T01:30:44.908Z,77.62
2016-12-05T01:31:39.115Z,77.46
2016-12-05T01:32:01.848Z,77.54
2016-12-05T01:32:54.722Z,77.65
2016-12-05T01:34:41.248Z,77.75
2016-12-05T01:35:12.320Z,77.81
2016-12-05T01:35:34.032Z,77.80
2016-12-05T01:36:01.340Z,77.78
2016-12-05T01:36:55.340Z,77.79
2016-12-05T01:37:18.081Z,77.64
2016-12-05T01:37:39.822Z,77.69
2016-12-05T01:38:06.319Z,77.75
2016-12-05T01:38:28.107Z,77.67
2016-12-05T01:38:55.339Z,77.68
2016-12-05T01:39:17.066Z,77.91
2016-12-05T01:39:38.864Z,78.06
2016-12-05T01:40:00.587Z,78.25
2016-12-05T01:40:53.779Z,78.16
2016-12-05T01:41:25.041Z,78.06
2016-12-05T01:41:46.803Z,77.71
2016-12-05T01:42:08.602Z,77.63
2016-12-05T01:42:36.094Z,77.64
2016-12-05T01:43:02.675Z,77.63
2016-12-05T01:43:29.178Z,77.72
2016-12-05T01:44:26.960Z,77.58
2016-12-05T01:44:48.721Z,77.76
2016-12-05T01:45:10.454Z,77.76
2016-12-05T01:45:32.183Z,77.87
2016-12-05T01:45:58.672Z,77.92
2016-12-05T01:46:20.392Z,78.03
2016-12-05T01:46:43.121Z,78.15
2016-12-05T01:47:09.611Z,78.29
2016-12-05T01:48:08.400Z,78.17
2016-12-05T01:48:30.140Z,78.17
2016-12-05T01:48:56.633Z,78.24
2016-12-05T01:49:18.370Z,78.18
2016-12-05T01:49:40.100Z,78.23
2016-12-05T01:50:06.594Z,78.47
2016-12-05T01:50:29.320Z,78.60
2016-12-05T01:50:51.054Z,78.63
2016-12-05T01:51:16.602Z,78.50
2016-12-05T01:51:38.335Z,78.26
2016-12-05T01:52:04.833Z,78.17
2016-12-05T01:52:26.560Z,78.23
2016-12-05T01:53:49.034Z,78.24
2016-12-05T01:54:10.759Z,78.32
2016-12-05T01:54:32.487Z,78.41
2016-12-05T01:54:54.255Z,78.34
2016-12-05T01:55:15.995Z,78.27
2016-12-05T01:55:37.712Z,78.36
2016-12-05T01:56:03.408Z,78.50
2016-12-05T01:56:25.137Z,78.45
2016-12-05T01:56:46.880Z,78.09
2016-12-05T01:57:13.406Z,77.99
2016-12-05T01:57:35.150Z,78.12
2016-12-05T01:57:56.888Z,78.10
2016-12-05T01:58:23.392Z,78.09
2016-12-05T01:58:47.708Z,78.15
2016-12-05T01:59:09.501Z,77.97
2016-12-05T01:59:36.390Z,77.83
2016-12-05T01:59:58.206Z,77.86
2016-12-05T02:00:19.973Z,78.05
2016-12-05T02:00:44.396Z,78.29
2016-12-05T02:01:10.658Z,78.57
2016-12-05T02:01:37.153Z,78.80
2016-12-05T02:01:58.872Z,78.65
2016-12-05T02:02:54.842Z,78.74
2016-12-05T02:03:22.330Z,78.47
2016-12-05T02:04:10.586Z,78.43
2016-12-05T02:04:58.825Z,78.73
2016-12-05T02:05:24.206Z,78.66
2016-12-05T02:07:07.315Z,79.35
2016-12-05T02:07:29.099Z,79.43
2016-12-05T02:08:21.361Z,79.78
2016-12-05T02:09:18.999Z,80.07
2016-12-05T02:09:45.504Z,80.21
2016-12-05T02:10:07.244Z,80.25
2016-12-05T02:10:31.720Z,80.22
2016-12-05T02:10:53.453Z,79.96
2016-12-05T02:11:54.773Z,79.86
2016-12-05T02:12:20.106Z,79.93
2016-12-05T02:12:46.639Z,80.11
2016-12-05T02:13:09.341Z,80.17
2016-12-05T02:13:45.367Z,79.80
2016-12-05T02:14:42.770Z,79.40
2016-12-05T02:15:05.549Z,79.27
2016-12-05T02:15:30.098Z,79.33
2016-12-05T02:15:56.603Z,79.23
2016-12-05T02:16:18.354Z,79.29
2016-12-05T02:16:41.103Z,79.50
2016-12-05T02:17:29.344Z,79.33
2016-12-05T02:17:51.084Z,79.25
2016-12-05T02:19:01.439Z,79.27
2016-12-05T02:19:28.532Z,79.33
2016-12-05T02:20:05.568Z,79.38
2016-12-05T02:20:31.911Z,79.31
2016-12-05T02:20:58.526Z,79.26
2016-12-05T02:21:52.493Z,79.26
2016-12-05T02:22:49.981Z,79.08
2016-12-05T02:23:52.517Z,79.54
2016-12-05T02:24:20.561Z,79.42
2016-12-05T02:24:43.310Z,79.28
2016-12-05T02:25:09.822Z,79.11
2016-12-05T02:25:36.209Z,78.96
2016-12-05T02:26:03.400Z,78.97
2016-12-05T02:26:30.282Z,79.11
2016-12-05T02:26:52.336Z,78.88
2016-12-05T02:27:15.101Z,78.69
2016-12-05T02:28:03.365Z,78.65
2016-12-05T02:28:32.665Z,78.83
2016-12-05T02:29:24.670Z,78.92
2016-12-05T02:29:49.976Z,78.62
2016-12-05T02:30:38.196Z,78.88
2016-12-05T02:31:08.040Z,79.27
2016-12-05T02:31:32.367Z,79.61
2016-12-05T02:31:55.149Z,79.88
2016-12-05T02:32:27.090Z,79.99
2016-12-05T02:32:48.839Z,80.00
2016-12-05T02:33:15.328Z,80.21
2016-12-05T02:33:39.571Z,80.18
2016-12-05T02:34:01.307Z,80.22
2016-12-05T02:34:27.871Z,80.56
2016-12-05T02:34:49.637Z,80.64
2016-12-05T02:35:16.430Z,80.79
2016-12-05T02:35:40.791Z,80.87
2016-12-05T02:36:07.292Z,81.08
2016-12-05T02:36:58.296Z,80.77
2016-12-05T02:37:24.782Z,80.23
2016-12-05T02:37:51.272Z,79.58
2016-12-05T02:38:13.010Z,79.50
2016-12-05T02:38:39.508Z,79.54
2016-12-05T02:39:01.244Z,79.47
2016-12-05T02:39:33.588Z,79.43
2016-12-05T02:39:55.329Z,79.74
2016-12-05T02:40:17.050Z,80.03
2016-12-05T02:40:39.845Z,80.17
2016-12-05T02:41:37.611Z,80.58
2016-12-05T02:42:26.908Z,80.37
2016-12-05T02:42:49.634Z,80.40
2016-12-05T02:43:11.375Z,80.50
2016-12-05T02:43:33.161Z,80.18
2016-12-05T02:44:02.258Z,79.61
2016-12-05T02:44:24.009Z,79.46
2016-12-05T02:44:56.265Z,79.53
2016-12-05T02:45:59.857Z,79.94
2016-12-05T02:46:26.378Z,80.07
2016-12-05T02:46:49.104Z,79.87
2016-12-05T02:47:15.426Z,79.42
2016-12-05T02:47:42.966Z,79.26
2016-12-05T02:48:10.466Z,79.64
2016-12-05T02:48:34.778Z,80.39
2016-12-05T02:50:18.425Z,79.54
2016-12-05T02:50:44.924Z,79.57
2016-12-05T02:51:38.950Z,80.20
2016-12-05T02:52:00.704Z,80.47
2016-12-05T02:52:23.442Z,80.40
2016-12-05T02:53:20.499Z,80.40
2016-12-05T02:53:47.002Z,80.26
2016-12-05T02:54:11.730Z,80.30
2016-12-05T02:54:35.454Z,80.18
2016-12-05T02:56:47.892Z,80.71
2016-12-05T02:57:10.795Z,80.29
2016-12-05T02:57:37.521Z,80.18
2016-12-05T02:58:03.832Z,80.31
2016-12-05T02:59:04.025Z,80.02
2016-12-05T02:59:25.761Z,79.57
2016-12-05T02:59:52.315Z,79.21
2016-12-05T03:00:41.553Z,79.28
2016-12-05T03:01:38.301Z,80.24
2016-12-05T03:02:00.045Z,80.50
2016-12-05T03:02:29.495Z,80.72
2016-12-05T03:02:58.863Z,80.78
2016-12-05T03:03:52.908Z,79.90
2016-12-05T03:04:44.539Z,79.53
2016-12-05T03:05:15.818Z,80.06
2016-12-05T03:05:37.593Z,80.27
2016-12-05T03:05:59.329Z,80.26
2016-12-05T03:06:21.056Z,80.41
2016-12-05T03:07:14.861Z,80.78
2016-12-05T03:08:07.860Z,80.92
2016-12-05T03:08:30.615Z,80.86
2016-12-05T03:08:55.210Z,80.88
2016-12-05T03:09:18.044Z,80.89
2016-12-05T03:09:44.416Z,80.82
2016-12-05T03:10:14.296Z,81.15
2016-12-05T03:10:39.041Z,81.49
2016-12-05T03:11:08.987Z,81.61
2016-12-05T03:11:35.506Z,81.63
2016-12-05T03:12:37.111Z,81.11
2016-12-05T03:13:11.482Z,81.25
2016-12-05T03:13:33.438Z,81.39
2016-12-05T03:14:04.704Z,81.47
2016-12-05T03:14:31.206Z,81.57
2016-12-05T03:15:52.916Z,81.55
2016-12-05T03:16:51.677Z,82.30
2016-12-05T03:17:19.726Z,82.25
2016-12-05T03:17:51.982Z,81.93
2016-12-05T03:18:13.709Z,81.80
2016-12-05T03:18:49.742Z,81.23
2016-12-05T03:19:14.178Z,80.65
2016-12-05T03:20:09.881Z,80.18
2016-12-05T03:20:31.608Z,79.95
2016-12-05T03:21:48.349Z,79.80
2016-12-05T03:22:36.571Z,79.92
2016-12-05T03:23:25.989Z,80.09
2016-12-05T03:23:47.755Z,79.80
2016-12-05T03:24:10.597Z,79.71
2016-12-05T03:24:36.906Z,79.78
2016-12-05T03:25:09.162Z,79.33
2016-12-05T03:25:36.656Z,79.48
2016-12-05T03:26:05.894Z,79.32
2016-12-05T03:26:32.389Z,79.57
2016-12-05T03:27:26.371Z,79.82
2016-12-05T03:27:48.097Z,79.98
2016-12-05T03:28:14.588Z,79.81
2016-12-05T03:28:37.325Z,79.69
2016-12-05T03:29:00.058Z,79.35
2016-12-05T03:29:28.161Z,79.10
2016-12-05T03:30:21.387Z,79.49
2016-12-05T03:30:47.765Z,79.51
2016-12-05T03:31:09.501Z,79.78
2016-12-05T03:31:33.255Z,80.02
2016-12-05T03:31:55.996Z,80.33
2016-12-05T03:32:17.814Z,80.61
2016-12-05T03:32:53.666Z,80.90
2016-12-05T03:33:21.181Z,81.06
2016-12-05T03:33:47.678Z,80.82
2016-12-05T03:34:40.711Z,80.39
2016-12-05T03:35:03.491Z,80.64
2016-12-05T03:35:26.235Z,80.92
2016-12-05T03:36:35.435Z,81.01
2016-12-05T03:36:57.168Z,80.82
2016-12-05T03:37:18.957Z,80.71
2016-12-05T03:37:45.886Z,80.57
2016-12-05T03:38:12.383Z,80.68
2016-12-05T03:38:37.068Z,80.99
2016-12-05T03:39:03.582Z,81.34
2016-12-05T03:39:30.105Z,81.11
2016-12-05T03:39:51.851Z,80.76
2016-12-05T03:40:16.504Z,80.69
2016-12-05T03:40:43.005Z,80.75
2016-12-05T03:41:05.742Z,80.97
2016-12-05T03:41:28.491Z,81.00
2016-12-05T03:41:50.213Z,80.86
2016-12-05T03:42:11.962Z,81.12
2016-12-05T03:42:41.047Z,81.24
2016-12-05T03:43:02.801Z,81.31
2016-12-05T03:43:24.534Z,80.98
2016-12-05T03:43:46.261Z,80.72
2016-12-05T03:44:35.514Z,80.79
2016-12-05T03:44:57.286Z,80.87
2016-12-05T03:45:21.873Z,80.98
2016-12-05T03:45:43.599Z,80.97
2016-12-05T03:46:08.036Z,80.68
2016-12-05T03:46:34.359Z,80.65
2016-12-05T03:47:00.853Z,80.54
2016-12-05T03:47:22.618Z,80.39
2016-12-05T03:48:11.068Z,79.62
2016-12-05T03:48:38.604Z,79.47
2016-12-05T03:49:02.943Z,79.41
2016-12-05T03:49:29.449Z,80.07
2016-12-05T03:50:01.717Z,80.21
2016-12-05T03:50:28.196Z,80.45
2016-12-05T03:50:49.992Z,80.32
2016-12-05T03:51:11.727Z,80.00
2016-12-05T03:51:34.509Z,79.88
2016-12-05T03:51:58.863Z,79.63
2016-12-05T03:52:20.650Z,79.61
2016-12-05T03:52:47.138Z,79.64
2016-12-05T03:53:39.163Z,79.63
2016-12-05T03:54:00.919Z,80.45
2016-12-05T03:54:22.662Z,80.75
2016-12-05T03:54:50.167Z,79.91
2016-12-05T03:55:20.320Z,79.72
2016-12-05T03:55:42.044Z,79.95
2016-12-05T03:56:03.816Z,80.32
2016-12-05T03:56:25.546Z,80.71
2016-12-05T03:56:47.300Z,80.94
2016-12-05T03:57:49.641Z,81.20
2016-12-05T03:58:41.331Z,81.42
2016-12-05T03:59:07.854Z,81.57
2016-12-05T04:00:06.470Z,81.58
2016-12-05T04:00:59.484Z,81.42
2016-12-05T04:01:22.403Z,81.72
2016-12-05T04:01:44.119Z,82.03
2016-12-05T04:02:13.437Z,82.36
2016-12-05T04:02:39.927Z,82.45
2016-12-05T04:03:12.191Z,81.89
2016-12-05T04:03:34.934Z,81.56
2016-12-05T04:04:01.508Z,81.42
2016-12-05T04:04:50.007Z,81.90
2016-12-05T04:05:42.381Z,82.12
2016-12-05T04:06:08.889Z,81.88
2016-12-05T04:06:30.627Z,81.65
2016-12-05T04:06:59.815Z,81.49
2016-12-05T04:07:57.579Z,81.34
2016-12-05T04:08:22.267Z,81.29
2016-12-05T04:08:49.773Z,81.48
2016-12-05T04:09:11.500Z,81.42
2016-12-05T04:09:33.222Z,81.32
2016-12-05T04:09:54.962Z,81.03
2016-12-05T04:10:19.396Z,80.71
2016-12-05T04:10:41.171Z,80.83
2016-12-05T04:11:29.473Z,80.72
2016-12-05T04:11:51.212Z,80.43
2016-12-05T04:12:13.936Z,80.35
2016-12-05T04:12:39.405Z,80.48
2016-12-05T04:13:07.881Z,80.65
2016-12-05T04:13:34.401Z,80.62
2016-12-05T04:14:00.947Z,80.37
2016-12-05T04:14:22.694Z,80.22
2016-12-05T04:14:44.436Z,79.86
2016-12-05T04:15:09.023Z,79.99
2016-12-05T04:15:30.789Z,80.27
2016-12-05T04:15:59.271Z,80.20
2016-12-05T04:16:25.766Z,80.33
2016-12-05T04:16:55.102Z,79.91
2016-12-05T04:17:18.859Z,79.59
2016-12-05T04:18:27.887Z,79.61
2016-12-05T04:18:54.384Z,80.26
2016-12-05T04:19:16.138Z,80.66
2016-12-05T04:19:37.883Z,81.12
2016-12-05T04:19:59.611Z,81.31
2016-12-05T04:20:21.486Z,81.41
2016-12-05T04:20:43.202Z,81.72
2016-12-05T04:21:12.572Z,82.19
2016-12-05T04:21:39.062Z,82.18
2016-12-05T04:22:01.859Z,82.09
2016-12-05T04:22:29.432Z,82.33
2016-12-05T04:23:22.058Z,83.05
2016-12-05T04:23:43.917Z,83.19
2016-12-05T04:24:05.664Z,82.66
2016-12-05T04:25:25.841Z,82.48
2016-12-05T04:25:47.589Z,82.42
2016-12-05T04:26:10.314Z,82.52
2016-12-05T04:27:04.160Z,82.79
2016-12-05T04:27:34.579Z,82.90
2016-12-05T04:27:56.318Z,83.05
2016-12-05T04:28:22.804Z,83.26
2016-12-05T04:28:49.298Z,83.46
2016-12-05T04:29:11.067Z,83.50
2016-12-05T04:30:06.687Z,83.29
2016-12-05T04:30:59.745Z,83.40
2016-12-05T04:31:29.256Z,83.31
2016-12-05T04:33:11.815Z,81.36
2016-12-05T04:33:43.702Z,81.61
2016-12-05T04:34:07.948Z,81.77
2016-12-05T04:34:34.264Z,81.64
2016-12-05T04:35:03.190Z,81.33
2016-12-05T04:35:24.921Z,81.15
2016-12-05T04:35:51.417Z,80.93
2016-12-05T04:36:58.715Z,81.35
2016-12-05T04:37:21.561Z,81.33
2016-12-05T04:37:45.821Z,81.05
2016-12-05T04:38:15.207Z,80.50
2016-12-05T04:38:37.934Z,80.07
2016-12-05T04:38:59.675Z,79.86
2016-12-05T04:39:22.411Z,79.63
2016-12-05T04:40:16.563Z,80.24
2016-12-05T04:40:42.245Z,80.64
2016-12-05T04:41:03.986Z,80.81
2016-12-05T04:41:31.312Z,80.58
2016-12-05T04:41:57.808Z,80.60
2016-12-05T04:42:24.316Z,80.83
2016-12-05T04:42:51.629Z,81.35
2016-12-05T04:43:20.901Z,81.32
2016-12-05T04:44:17.633Z,81.43
2016-12-05T04:44:45.166Z,81.25
2016-12-05T04:45:07.903Z,81.11
2016-12-05T04:45:29.619Z,80.94
2016-12-05T04:46:17.839Z,80.80
2016-12-05T04:46:45.339Z,80.68
2016-12-05T04:47:11.846Z,80.69
2016-12-05T04:47:33.618Z,80.64
2016-12-05T04:48:05.887Z,80.19
2016-12-05T04:48:46.187Z,80.08
2016-12-05T04:49:07.918Z,80.03
2016-12-05T04:49:29.648Z,80.27
2016-12-05T04:49:59.763Z,80.66
2016-12-05T04:50:26.276Z,80.87
2016-12-05T04:50:52.778Z,81.06
2016-12-05T04:51:14.493Z,81.27
2016-12-05T04:52:08.967Z,81.11
2016-12-05T04:52:34.679Z,81.15
2016-12-05T04:52:57.402Z,81.07
2016-12-05T04:53:22.062Z,81.18
2016-12-05T04:54:21.235Z,81.00
2016-12-05T04:54:42.976Z,80.98
2016-12-05T04:55:04.739Z,81.07
2016-12-05T04:55:26.457Z,81.32
2016-12-05T04:55:58.136Z,81.66
2016-12-05T04:56:22.411Z,81.88
2016-12-05T04:57:25.766Z,82.06
2016-12-05T04:57:47.524Z,82.06
2016-12-05T04:58:14.018Z,81.93
2016-12-05T04:58:44.244Z,82.00
2016-12-05T05:00:13.523Z,81.32
2016-12-05T05:00:44.683Z,81.33
2016-12-05T05:01:15.947Z,81.46
2016-12-05T05:01:42.436Z,81.18
2016-12-05T05:02:07.930Z,80.89
2016-12-05T05:03:10.371Z,80.63
2016-12-05T05:03:32.079Z,80.59
2016-12-05T05:04:20.304Z,80.84
2016-12-05T05:04:49.781Z,80.89
2016-12-05T05:05:16.119Z,81.20
2016-12-05T05:05:38.063Z,81.05
2016-12-05T05:06:00.806Z,81.01
2016-12-05T05:06:30.978Z,81.00
2016-12-05T05:06:55.290Z,80.76
2016-12-05T05:07:19.020Z,80.43
2016-12-05T05:07:40.743Z,80.36
2016-12-05T05:08:07.252Z,80.39
2016-12-05T05:08:32.624Z,80.74
2016-12-05T05:08:54.385Z,80.85
2016-12-05T05:09:19.844Z,81.13
2016-12-05T05:10:59.000Z,80.95
2016-12-05T05:11:47.236Z,81.25
2016-12-05T05:12:13.730Z,81.33
2016-12-05T05:12:39.360Z,81.58
2016-12-05T05:13:14.273Z,81.58
2016-12-05T05:15:06.054Z,81.49
2016-12-05T05:15:37.322Z,81.16
2016-12-05T05:16:21.750Z,82.10
2016-12-05T05:16:43.470Z,82.10
2016-12-05T05:17:06.195Z,81.77
2016-12-05T05:17:32.504Z,81.59
2016-12-05T05:17:54.219Z,81.71
2016-12-05T05:18:16.967Z,81.86
2016-12-05T05:19:10.937Z,82.77
2016-12-05T05:19:37.437Z,82.70
2016-12-05T05:19:59.202Z,82.67
2016-12-05T05:20:20.922Z,82.62
2016-12-05T05:20:47.433Z,82.80
2016-12-05T05:21:09.157Z,82.92
2016-12-05T05:21:30.889Z,82.98
2016-12-05T05:21:55.386Z,82.91
2016-12-05T05:22:21.727Z,82.73
2016-12-05T05:22:43.445Z,82.72
2016-12-05T05:23:05.170Z,82.73
2016-12-05T05:23:28.893Z,82.69
2016-12-05T05:23:51.608Z,83.10
2016-12-05T05:24:13.331Z,83.52
2016-12-05T05:24:36.052Z,83.50
2016-12-05T05:25:12.089Z,83.00
2016-12-05T05:26:09.707Z,81.70
2016-12-05T05:26:31.456Z,81.78
2016-12-05T05:26:56.097Z,82.06
2016-12-05T05:27:22.662Z,81.74
2016-12-05T05:27:44.377Z,81.66
2016-12-05T05:28:10.916Z,81.77
2016-12-05T05:29:03.891Z,82.12
2016-12-05T05:29:30.386Z,81.98
2016-12-05T05:29:52.229Z,82.15
2016-12-05T05:30:13.843Z,82.38
2016-12-05T05:30:35.555Z,82.54
2016-12-05T05:30:57.278Z,82.52
2016-12-05T05:31:19.010Z,82.58
2016-12-05T05:32:07.226Z,82.72
2016-12-05T05:32:28.952Z,82.86
2016-12-05T05:32:55.425Z,82.68
2016-12-05T05:33:21.912Z,82.60
2016-12-05T05:33:43.655Z,82.50
2016-12-05T05:34:05.355Z,82.44
2016-12-05T05:34:27.079Z,82.43
2016-12-05T05:34:48.798Z,82.82
2016-12-05T05:35:10.513Z,82.67
2016-12-05T05:35:34.547Z,82.76
2016-12-05T05:35:56.165Z,82.60
2016-12-05T05:36:17.872Z,82.28
2016-12-05T05:36:39.583Z,81.98
2016-12-05T05:37:01.295Z,81.74
2016-12-05T05:37:23.005Z,81.60
2016-12-05T05:37:44.713Z,81.70
2016-12-05T05:38:06.462Z,81.78
2016-12-05T05:38:28.183Z,81.80
2016-12-05T05:39:16.928Z,82.42
2016-12-05T05:39:38.635Z,82.60
2016-12-05T05:40:00.357Z,82.53
2016-12-05T05:40:22.075Z,82.17
2016-12-05T05:40:43.787Z,82.15
2016-12-05T05:41:05.534Z,82.35
2016-12-05T05:41:27.260Z,82.62
2016-12-05T05:41:48.991Z,82.74
2016-12-05T05:42:10.700Z,82.87
2016-12-05T05:42:32.424Z,83.00
2016-12-05T05:42:54.141Z,83.02
2016-12-05T05:43:15.861Z,83.04
2016-12-05T05:43:37.576Z,82.88
2016-12-05T05:44:00.292Z,82.89
2016-12-05T05:44:22.006Z,82.96
2016-12-05T05:44:43.718Z,83.08
2016-12-05T05:45:05.440Z,82.89
2016-12-05T05:45:27.152Z,82.49
2016-12-05T05:45:48.865Z,82.07
2016-12-05T05:46:10.593Z,81.63
2016-12-05T05:46:32.313Z,81.32
2016-12-05T05:46:54.026Z,81.47
2016-12-05T05:47:16.735Z,81.72
2016-12-05T05:47:38.453Z,81.88
2016-12-05T05:48:00.332Z,81.78
2016-12-05T05:48:22.177Z,81.89
2016-12-05T05:48:43.886Z,82.03
2016-12-05T05:49:05.594Z,82.03
2016-12-05T05:49:27.308Z,82.11
2016-12-05T05:49:49.031Z,82.35
2016-12-05T05:50:10.757Z,82.44
2016-12-05T05:50:32.488Z,82.11
2016-12-05T05:50:54.203Z,81.87
2016-12-05T05:51:15.920Z,81.71
2016-12-05T05:51:37.636Z,81.56
2016-12-05T05:51:59.341Z,81.62
2016-12-05T05:52:21.059Z,81.59
2016-12-05T05:52:42.815Z,81.56
2016-12-05T05:53:04.554Z,81.21
2016-12-05T05:53:26.279Z,80.94
2016-12-05T05:53:47.995Z,80.86
2016-12-05T05:54:10.705Z,81.20
2016-12-05T05:54:32.419Z,81.39
2016-12-05T05:54:54.133Z,81.42
2016-12-05T05:55:25.392Z,81.31
2016-12-05T05:55:47.112Z,81.40
2016-12-05T05:56:08.820Z,81.07
2016-12-05T05:56:30.564Z,80.90
2016-12-05T05:56:52.300Z,80.69
2016-12-05T05:57:14.018Z,80.60
2016-12-05T05:57:35.741Z,80.73
2016-12-05T05:57:57.472Z,80.86
2016-12-05T05:58:19.181Z,81.11
2016-12-05T05:58:40.899Z,81.27
2016-12-05T05:59:29.095Z,81.40
2016-12-05T05:59:50.811Z,81.52
2016-12-05T06:00:12.523Z,81.80
2016-12-05T06:00:34.235Z,82.08
2016-12-05T06:00:55.950Z,82.57
2016-12-05T06:01:17.670Z,82.58
2016-12-05T06:01:39.399Z,82.25
2016-12-05T06:02:01.119Z,82.38
2016-12-05T06:02:22.833Z,82.21
2016-12-05T06:02:44.550Z,82.15
2016-12-05T06:03:06.266Z,82.08
2016-12-05T06:03:27.978Z,82.13
2016-12-05T06:03:49.695Z,82.14
2016-12-05T06:04:11.409Z,81.87
2016-12-05T06:04:33.125Z,81.93
2016-12-05T06:04:54.839Z,81.97
2016-12-05T06:05:16.545Z,82.17
2016-12-05T06:05:38.255Z,82.34
2016-12-05T06:05:59.976Z,82.28
2016-12-05T06:06:21.685Z,82.15
2016-12-05T06:06:43.411Z,82.45
2016-12-05T06:07:05.133Z,82.39
2016-12-05T06:07:26.845Z,82.23
2016-12-05T06:07:48.555Z,81.78
2016-12-05T06:08:10.271Z,81.61
2016-12-05T06:08:31.989Z,81.76
2016-12-05T06:08:53.718Z,81.75
2016-12-05T06:09:15.430Z,82.04
2016-12-05T06:09:37.153Z,82.35
2016-12-05T06:09:58.865Z,82.55
2016-12-05T06:10:21.571Z,82.09
2016-12-05T06:10:43.304Z,82.00
2016-12-05T06:11:05.024Z,81.45
2016-12-05T06:11:26.755Z,81.62
2016-12-05T06:11:48.477Z,81.95
2016-12-05T06:12:11.200Z,81.93
2016-12-05T06:12:32.927Z,81.87
2016-12-05T06:12:54.640Z,81.60
2016-12-05T06:13:16.350Z,81.57
2016-12-05T06:13:38.129Z,82.28
2016-12-05T06:13:59.853Z,82.31
2016-12-05T06:14:21.577Z,82.52
2016-12-05T06:14:43.299Z,82.03
2016-12-05T06:15:05.010Z,82.21
2016-12-05T06:15:26.731Z,82.25
2016-12-05T06:15:53.219Z,82.50
2016-12-05T06:16:14.980Z,82.64
2016-12-05T06:16:36.690Z,82.96
2016-12-05T06:16:58.404Z,82.84
2016-12-05T06:17:20.116Z,82.96
2016-12-05T06:17:41.836Z,82.99
2016-12-05T06:18:03.545Z,82.74
2016-12-05T06:18:25.271Z,82.88
2016-12-05T06:18:46.988Z,83.04
2016-12-05T06:19:08.704Z,83.16
2016-12-05T06:19:30.431Z,83.29
2016-12-05T06:19:52.160Z,83.38
2016-12-05T06:20:13.869Z,83.40
2016-12-05T06:20:35.584Z,83.26
2016-12-05T06:20:57.324Z,83.25
2016-12-05T06:21:19.029Z,83.48
2016-12-05T06:21:40.749Z,83.55
2016-12-05T06:22:02.467Z,83.14
2016-12-05T06:22:24.180Z,83.26
2016-12-05T06:22:45.897Z,83.42
2016-12-05T06:23:07.612Z,83.39
2016-12-05T06:23:29.326Z,83.20
2016-12-05T06:23:51.039Z,82.52
2016-12-05T06:24:12.753Z,82.14
2016-12-05T06:24:34.466Z,81.91
2016-12-05T06:24:56.172Z,82.13
2016-12-05T06:25:17.889Z,82.30
2016-12-05T06:25:39.603Z,82.34
2016-12-05T06:26:01.313Z,82.21
2016-12-05T06:26:23.015Z,82.24